sensor_id;sensor_type;location;lat;lon;timestamp;temperature;humidity
27004;DHT22;14546;47.590;19.022;2023-04-01T00:00:52;9.70;93.70
27004;DHT22;14546;47.590;19.022;2023-04-01T00:03:19;9.80;93.80
27004;DHT22;14546;47.590;19.022;2023-04-01T00:05:46;9.70;93.80
27004;DHT22;14546;47.590;19.022;2023-04-01T00:08:12;9.70;93.80
27004;DHT22;14546;47.590;19.022;2023-04-01T00:10:37;9.80;93.90
27004;DHT22;14546;47.590;19.022;2023-04-01T00:13:03;9.70;93.90
27004;DHT22;14546;47.590;19.022;2023-04-01T00:15:29;9.70;93.90
27004;DHT22;14546;47.590;19.022;2023-04-01T00:17:55;9.70;93.90
27004;DHT22;14546;47.590;19.022;2023-04-01T00:20:21;9.70;93.90
27004;DHT22;14546;47.590;19.022;2023-04-01T00:22:47;9.70;93.80
27004;DHT22;14546;47.590;19.022;2023-04-01T00:25:13;9.70;93.90
27004;DHT22;14546;47.590;19.022;2023-04-01T00:27:39;9.70;94.20
27004;DHT22;14546;47.590;19.022;2023-04-01T00:30:05;9.70;94.00
27004;DHT22;14546;47.590;19.022;2023-04-01T00:32:31;9.70;93.90
27004;DHT22;14546;47.590;19.022;2023-04-01T00:34:57;9.70;93.90
27004;DHT22;14546;47.590;19.022;2023-04-01T00:37:25;9.70;93.90
27004;DHT22;14546;47.590;19.022;2023-04-01T00:39:51;9.70;93.90
27004;DHT22;14546;47.590;19.022;2023-04-01T00:42:17;9.70;93.80
27004;DHT22;14546;47.590;19.022;2023-04-01T00:44:46;9.70;93.90
27004;DHT22;14546;47.590;19.022;2023-04-01T00:47:13;9.70;93.90
27004;DHT22;14546;47.590;19.022;2023-04-01T00:49:42;9.70;93.90
27004;DHT22;14546;47.590;19.022;2023-04-01T00:52:11;9.70;93.90
27004;DHT22;14546;47.590;19.022;2023-04-01T00:54:38;9.70;93.90
27004;DHT22;14546;47.590;19.022;2023-04-01T00:57:31;9.60;94.00
27004;DHT22;14546;47.590;19.022;2023-04-01T00:59:57;9.70;94.00
27004;DHT22;14546;47.590;19.022;2023-04-01T01:02:24;9.70;94.00
27004;DHT22;14546;47.590;19.022;2023-04-01T01:04:50;9.70;94.00
27004;DHT22;14546;47.590;19.022;2023-04-01T01:10:29;9.70;94.00
27004;DHT22;14546;47.590;19.022;2023-04-01T01:13:29;9.70;93.90
27004;DHT22;14546;47.590;19.022;2023-04-01T01:16:03;9.70;93.90
27004;DHT22;14546;47.590;19.022;2023-04-01T01:18:38;9.60;93.90
27004;DHT22;14546;47.590;19.022;2023-04-01T01:35:19;9.50;93.90
27004;DHT22;14546;47.590;19.022;2023-04-01T01:37:46;9.50;94.00
27004;DHT22;14546;47.590;19.022;2023-04-01T01:40:14;9.60;94.20
27004;DHT22;14546;47.590;19.022;2023-04-01T01:42:45;9.60;94.20
27004;DHT22;14546;47.590;19.022;2023-04-01T01:45:15;9.60;94.50
27004;DHT22;14546;47.590;19.022;2023-04-01T01:47:43;9.70;94.10
27004;DHT22;14546;47.590;19.022;2023-04-01T01:50:11;9.70;94.10
27004;DHT22;14546;47.590;19.022;2023-04-01T01:52:37;9.80;94.00
27004;DHT22;14546;47.590;19.022;2023-04-01T01:55:02;9.80;93.90
27004;DHT22;14546;47.590;19.022;2023-04-01T01:57:33;9.90;93.90
27004;DHT22;14546;47.590;19.022;2023-04-01T02:00:07;9.90;93.80
27004;DHT22;14546;47.590;19.022;2023-04-01T02:02:40;9.90;93.60
27004;DHT22;14546;47.590;19.022;2023-04-01T02:05:09;10.00;93.60
27004;DHT22;14546;47.590;19.022;2023-04-01T02:07:37;10.00;93.50
27004;DHT22;14546;47.590;19.022;2023-04-01T02:10:05;10.00;93.40
27004;DHT22;14546;47.590;19.022;2023-04-01T02:12:33;10.00;93.30
27004;DHT22;14546;47.590;19.022;2023-04-01T02:15:06;10.00;93.10
27004;DHT22;14546;47.590;19.022;2023-04-01T02:17:34;10.00;93.00
27004;DHT22;14546;47.590;19.022;2023-04-01T02:20:30;10.00;92.90
27004;DHT22;14546;47.590;19.022;2023-04-01T02:22:55;10.10;92.80
27004;DHT22;14546;47.590;19.022;2023-04-01T02:25:25;10.10;92.70
27004;DHT22;14546;47.590;19.022;2023-04-01T02:27:52;10.00;92.70
27004;DHT22;14546;47.590;19.022;2023-04-01T02:30:19;10.00;92.60
27004;DHT22;14546;47.590;19.022;2023-04-01T02:32:46;9.90;92.50
27004;DHT22;14546;47.590;19.022;2023-04-01T02:35:14;9.90;92.50
27004;DHT22;14546;47.590;19.022;2023-04-01T02:37:40;9.90;92.50
27004;DHT22;14546;47.590;19.022;2023-04-01T02:40:10;9.90;92.40
27004;DHT22;14546;47.590;19.022;2023-04-01T02:42:36;9.80;92.30
27004;DHT22;14546;47.590;19.022;2023-04-01T02:45:03;9.80;92.30
27004;DHT22;14546;47.590;19.022;2023-04-01T02:47:29;9.70;92.20
27004;DHT22;14546;47.590;19.022;2023-04-01T02:49:55;9.70;92.30
27004;DHT22;14546;47.590;19.022;2023-04-01T02:52:28;9.70;92.30
27004;DHT22;14546;47.590;19.022;2023-04-01T02:54:54;9.60;92.30
27004;DHT22;14546;47.590;19.022;2023-04-01T02:57:21;9.60;92.40
27004;DHT22;14546;47.590;19.022;2023-04-01T02:59:47;9.60;92.30
27004;DHT22;14546;47.590;19.022;2023-04-01T03:02:13;9.60;92.30
27004;DHT22;14546;47.590;19.022;2023-04-01T03:04:39;9.60;92.30
27004;DHT22;14546;47.590;19.022;2023-04-01T03:07:05;9.60;92.30
27004;DHT22;14546;47.590;19.022;2023-04-01T03:09:31;9.60;92.20
27004;DHT22;14546;47.590;19.022;2023-04-01T03:11:56;9.60;92.00
27004;DHT22;14546;47.590;19.022;2023-04-01T03:14:22;9.70;92.00
27004;DHT22;14546;47.590;19.022;2023-04-01T03:16:48;9.70;91.80
27004;DHT22;14546;47.590;19.022;2023-04-01T03:19:14;9.70;91.70
27004;DHT22;14546;47.590;19.022;2023-04-01T03:21:40;9.70;91.60
27004;DHT22;14546;47.590;19.022;2023-04-01T03:24:06;9.80;91.60
27004;DHT22;14546;47.590;19.022;2023-04-01T03:26:34;9.70;91.40
27004;DHT22;14546;47.590;19.022;2023-04-01T03:29:00;9.70;91.40
27004;DHT22;14546;47.590;19.022;2023-04-01T03:31:25;9.70;91.30
27004;DHT22;14546;47.590;19.022;2023-04-01T03:33:51;9.70;91.40
27004;DHT22;14546;47.590;19.022;2023-04-01T03:36:17;9.60;91.40
27004;DHT22;14546;47.590;19.022;2023-04-01T03:38:44;9.60;91.50
27004;DHT22;14546;47.590;19.022;2023-04-01T03:41:14;9.60;91.50
27004;DHT22;14546;47.590;19.022;2023-04-01T03:43:41;9.60;91.50
27004;DHT22;14546;47.590;19.022;2023-04-01T03:46:06;9.50;91.40
27004;DHT22;14546;47.590;19.022;2023-04-01T03:48:32;9.50;91.40
27004;DHT22;14546;47.590;19.022;2023-04-01T03:50:58;9.50;91.40
27004;DHT22;14546;47.590;19.022;2023-04-01T03:53:23;9.40;91.40
27004;DHT22;14546;47.590;19.022;2023-04-01T03:55:50;9.40;91.40
27004;DHT22;14546;47.590;19.022;2023-04-01T03:58:17;9.30;91.40
27004;DHT22;14546;47.590;19.022;2023-04-01T04:00:43;9.30;91.30
27004;DHT22;14546;47.590;19.022;2023-04-01T04:03:08;9.20;91.30
27004;DHT22;14546;47.590;19.022;2023-04-01T04:05:34;9.10;91.30
27004;DHT22;14546;47.590;19.022;2023-04-01T04:08:00;9.00;91.20
27004;DHT22;14546;47.590;19.022;2023-04-01T04:10:26;8.90;91.20
27004;DHT22;14546;47.590;19.022;2023-04-01T04:12:52;8.80;91.20
27004;DHT22;14546;47.590;19.022;2023-04-01T04:15:18;8.80;91.30
27004;DHT22;14546;47.590;19.022;2023-04-01T04:17:47;8.80;91.40
27004;DHT22;14546;47.590;19.022;2023-04-01T04:20:13;8.70;91.40
27004;DHT22;14546;47.590;19.022;2023-04-01T04:22:38;8.70;91.50
27004;DHT22;14546;47.590;19.022;2023-04-01T04:25:05;8.60;91.50
27004;DHT22;14546;47.590;19.022;2023-04-01T04:27:31;8.60;91.50
27004;DHT22;14546;47.590;19.022;2023-04-01T04:29:56;8.60;91.50
27004;DHT22;14546;47.590;19.022;2023-04-01T04:32:22;8.50;91.40
27004;DHT22;14546;47.590;19.022;2023-04-01T04:34:48;8.50;91.50
27004;DHT22;14546;47.590;19.022;2023-04-01T04:37:13;8.50;91.50
27004;DHT22;14546;47.590;19.022;2023-04-01T04:39:39;8.50;91.50
27004;DHT22;14546;47.590;19.022;2023-04-01T04:42:05;8.40;91.50
27004;DHT22;14546;47.590;19.022;2023-04-01T04:44:31;8.40;91.70
27004;DHT22;14546;47.590;19.022;2023-04-01T04:46:56;8.40;91.50
27004;DHT22;14546;47.590;19.022;2023-04-01T04:49:22;8.30;91.50
27004;DHT22;14546;47.590;19.022;2023-04-01T04:51:48;8.30;91.60
27004;DHT22;14546;47.590;19.022;2023-04-01T04:54:13;8.30;91.80
27004;DHT22;14546;47.590;19.022;2023-04-01T04:56:39;8.30;92.00
27004;DHT22;14546;47.590;19.022;2023-04-01T04:59:08;8.30;92.10
27004;DHT22;14546;47.590;19.022;2023-04-01T05:01:33;8.40;92.30
27004;DHT22;14546;47.590;19.022;2023-04-01T05:03:59;8.40;92.40
27004;DHT22;14546;47.590;19.022;2023-04-01T05:06:26;8.50;92.50
27004;DHT22;14546;47.590;19.022;2023-04-01T05:08:55;8.60;92.50
27004;DHT22;14546;47.590;19.022;2023-04-01T05:11:21;8.60;92.90
27004;DHT22;14546;47.590;19.022;2023-04-01T05:13:47;8.70;92.60
27004;DHT22;14546;47.590;19.022;2023-04-01T05:16:16;8.80;92.60
27004;DHT22;14546;47.590;19.022;2023-04-01T05:18:42;8.90;92.60
27004;DHT22;14546;47.590;19.022;2023-04-01T05:21:10;9.00;92.50
27004;DHT22;14546;47.590;19.022;2023-04-01T05:23:37;9.10;92.60
27004;DHT22;14546;47.590;19.022;2023-04-01T05:26:05;9.20;92.50
27004;DHT22;14546;47.590;19.022;2023-04-01T05:28:30;9.30;92.30
27004;DHT22;14546;47.590;19.022;2023-04-01T05:30:59;9.30;92.20
27004;DHT22;14546;47.590;19.022;2023-04-01T05:33:25;9.40;92.10
27004;DHT22;14546;47.590;19.022;2023-04-01T05:35:51;9.50;92.10
27004;DHT22;14546;47.590;19.022;2023-04-01T05:38:16;9.60;91.90
27004;DHT22;14546;47.590;19.022;2023-04-01T05:40:42;9.70;91.70
27004;DHT22;14546;47.590;19.022;2023-04-01T05:43:08;9.70;91.50
27004;DHT22;14546;47.590;19.022;2023-04-01T05:45:34;9.80;91.50
27004;DHT22;14546;47.590;19.022;2023-04-01T05:48:00;9.80;91.30
27004;DHT22;14546;47.590;19.022;2023-04-01T05:50:26;9.90;91.20
27004;DHT22;14546;47.590;19.022;2023-04-01T05:52:52;10.00;91.00
27004;DHT22;14546;47.590;19.022;2023-04-01T05:55:17;10.00;90.80
27004;DHT22;14546;47.590;19.022;2023-04-01T05:57:45;10.10;90.70
27004;DHT22;14546;47.590;19.022;2023-04-01T06:00:12;10.20;90.50
27004;DHT22;14546;47.590;19.022;2023-04-01T06:02:38;10.30;90.30
27004;DHT22;14546;47.590;19.022;2023-04-01T06:05:19;10.40;90.00
27004;DHT22;14546;47.590;19.022;2023-04-01T06:07:45;10.50;89.30
27004;DHT22;14546;47.590;19.022;2023-04-01T06:10:17;10.50;88.50
27004;DHT22;14546;47.590;19.022;2023-04-01T06:18:08;10.70;87.00
27004;DHT22;14546;47.590;19.022;2023-04-01T06:31:55;11.00;85.30
27004;DHT22;14546;47.590;19.022;2023-04-01T06:53:04;11.30;83.00
27004;DHT22;14546;47.590;19.022;2023-04-01T06:55:59;11.30;83.00
27004;DHT22;14546;47.590;19.022;2023-04-01T06:58:34;11.40;82.00
27004;DHT22;14546;47.590;19.022;2023-04-01T07:01:04;11.40;81.60
27004;DHT22;14546;47.590;19.022;2023-04-01T07:03:49;11.40;81.60
27004;DHT22;14546;47.590;19.022;2023-04-01T07:06:30;11.50;81.60
27004;DHT22;14546;47.590;19.022;2023-04-01T07:09:00;11.60;81.70
27004;DHT22;14546;47.590;19.022;2023-04-01T07:11:35;11.70;81.30
27004;DHT22;14546;47.590;19.022;2023-04-01T07:14:22;11.70;81.00
27004;DHT22;14546;47.590;19.022;2023-04-01T07:17:06;11.80;80.80
27004;DHT22;14546;47.590;19.022;2023-04-01T07:19:50;11.90;80.30
27004;DHT22;14546;47.590;19.022;2023-04-01T07:22:35;12.00;80.00
27004;DHT22;14546;47.590;19.022;2023-04-01T07:25:14;12.00;79.70
27004;DHT22;14546;47.590;19.022;2023-04-01T07:27:41;12.10;79.20
27004;DHT22;14546;47.590;19.022;2023-04-01T07:30:18;12.20;78.80
27004;DHT22;14546;47.590;19.022;2023-04-01T07:35:31;12.30;78.00
27004;DHT22;14546;47.590;19.022;2023-04-01T07:40:53;12.50;77.00
27004;DHT22;14546;47.590;19.022;2023-04-01T07:48:57;12.60;75.40
27004;DHT22;14546;47.590;19.022;2023-04-01T07:51:32;12.50;74.90
27004;DHT22;14546;47.590;19.022;2023-04-01T08:16:09;12.60;74.40
27004;DHT22;14546;47.590;19.022;2023-04-01T08:18:51;12.70;74.40
27004;DHT22;14546;47.590;19.022;2023-04-01T08:21:40;12.70;74.50
27004;DHT22;14546;47.590;19.022;2023-04-01T08:24:29;12.90;74.30
27004;DHT22;14546;47.590;19.022;2023-04-01T08:27:00;13.00;73.50
27004;DHT22;14546;47.590;19.022;2023-04-01T08:30:06;13.10;73.00
27004;DHT22;14546;47.590;19.022;2023-04-01T08:32:38;13.20;72.10
27004;DHT22;14546;47.590;19.022;2023-04-01T08:35:17;13.30;72.90
27004;DHT22;14546;47.590;19.022;2023-04-01T08:37:44;13.50;72.90
27004;DHT22;14546;47.590;19.022;2023-04-01T08:48:58;13.90;70.80
27004;DHT22;14546;47.590;19.022;2023-04-01T08:51:43;13.90;69.90
27004;DHT22;14546;47.590;19.022;2023-04-01T08:59:52;13.80;70.00
27004;DHT22;14546;47.590;19.022;2023-04-01T09:03:02;13.80;69.50
27004;DHT22;14546;47.590;19.022;2023-04-01T09:18:54;13.70;70.20
27004;DHT22;14546;47.590;19.022;2023-04-01T09:24:19;13.90;69.50
27004;DHT22;14546;47.590;19.022;2023-04-01T09:38:00;13.70;68.70
27004;DHT22;14546;47.590;19.022;2023-04-01T09:40:54;13.60;68.90
27004;DHT22;14546;47.590;19.022;2023-04-01T09:43:30;13.50;69.00
27004;DHT22;14546;47.590;19.022;2023-04-01T09:49:08;13.30;69.70
27004;DHT22;14546;47.590;19.022;2023-04-01T09:52:01;13.30;69.90
27004;DHT22;14546;47.590;19.022;2023-04-01T10:23:52;13.40;70.10
27004;DHT22;14546;47.590;19.022;2023-04-01T10:26:43;13.30;70.10
27004;DHT22;14546;47.590;19.022;2023-04-01T10:50:22;13.90;70.40
27004;DHT22;14546;47.590;19.022;2023-04-01T11:41:30;13.20;68.80
27004;DHT22;14546;47.590;19.022;2023-04-01T12:12:22;14.40;67.90
27004;DHT22;14546;47.590;19.022;2023-04-01T12:17:57;14.70;64.10
27004;DHT22;14546;47.590;19.022;2023-04-01T12:31:33;14.20;65.30
27004;DHT22;14546;47.590;19.022;2023-04-01T15:02:57;17.30;52.50
27004;DHT22;14546;47.590;19.022;2023-04-01T15:07:49;17.10;53.20
27004;DHT22;14546;47.590;19.022;2023-04-01T15:13:30;17.10;54.00
27004;DHT22;14546;47.590;19.022;2023-04-01T15:24:20;16.90;53.20
27004;DHT22;14546;47.590;19.022;2023-04-01T15:29:25;16.80;53.30
27004;DHT22;14546;47.590;19.022;2023-04-01T15:32:02;16.90;53.60
27004;DHT22;14546;47.590;19.022;2023-04-01T15:34:32;17.10;54.00
27004;DHT22;14546;47.590;19.022;2023-04-01T15:51:20;17.10;50.70
27004;DHT22;14546;47.590;19.022;2023-04-01T16:06:11;16.80;50.70
27004;DHT22;14546;47.590;19.022;2023-04-01T16:25:51;16.60;49.90
27004;DHT22;14546;47.590;19.022;2023-04-01T16:28:36;16.60;50.00
27004;DHT22;14546;47.590;19.022;2023-04-01T16:31:13;16.50;50.40
27004;DHT22;14546;47.590;19.022;2023-04-01T16:36:50;16.50;51.30
27004;DHT22;14546;47.590;19.022;2023-04-01T16:39:37;16.50;52.10
27004;DHT22;14546;47.590;19.022;2023-04-01T16:42:31;16.50;52.60
27004;DHT22;14546;47.590;19.022;2023-04-01T16:47:40;16.30;53.10
27004;DHT22;14546;47.590;19.022;2023-04-01T16:50:22;16.20;53.40
27004;DHT22;14546;47.590;19.022;2023-04-01T17:08:16;16.00;53.70
27004;DHT22;14546;47.590;19.022;2023-04-01T17:27:22;14.70;56.50
27004;DHT22;14546;47.590;19.022;2023-04-01T17:35:31;14.30;57.60
27004;DHT22;14546;47.590;19.022;2023-04-01T17:48:29;13.90;58.60
27004;DHT22;14546;47.590;19.022;2023-04-01T17:51:23;13.80;59.10
27004;DHT22;14546;47.590;19.022;2023-04-01T17:56:59;13.50;59.90
27004;DHT22;14546;47.590;19.022;2023-04-01T18:10:54;12.80;61.80
27004;DHT22;14546;47.590;19.022;2023-04-01T18:27:38;12.20;63.90
27004;DHT22;14546;47.590;19.022;2023-04-01T18:30:30;12.20;63.80
27004;DHT22;14546;47.590;19.022;2023-04-01T18:38:33;11.90;65.10
27004;DHT22;14546;47.590;19.022;2023-04-01T18:41:19;11.80;65.40
27004;DHT22;14546;47.590;19.022;2023-04-01T18:52:02;11.50;66.40
27004;DHT22;14546;47.590;19.022;2023-04-01T18:54:45;11.40;66.50
27004;DHT22;14546;47.590;19.022;2023-04-01T18:57:18;11.40;66.70
27004;DHT22;14546;47.590;19.022;2023-04-01T18:59:46;11.30;66.80
27004;DHT22;14546;47.590;19.022;2023-04-01T19:07:53;11.10;68.00
27004;DHT22;14546;47.590;19.022;2023-04-01T19:10:40;11.10;68.40
27004;DHT22;14546;47.590;19.022;2023-04-01T19:13:15;11.00;68.40
27004;DHT22;14546;47.590;19.022;2023-04-01T19:21:57;10.80;69.10
27004;DHT22;14546;47.590;19.022;2023-04-01T19:30:14;10.60;69.60
27004;DHT22;14546;47.590;19.022;2023-04-01T19:46:43;10.40;70.90
27004;DHT22;14546;47.590;19.022;2023-04-01T19:49:21;10.40;70.80
27004;DHT22;14546;47.590;19.022;2023-04-01T19:57:39;10.30;71.40
27004;DHT22;14546;47.590;19.022;2023-04-01T20:00:43;10.30;71.70
27004;DHT22;14546;47.590;19.022;2023-04-01T20:14:35;10.20;72.40
27004;DHT22;14546;47.590;19.022;2023-04-01T20:17:45;10.20;72.20
27004;DHT22;14546;47.590;19.022;2023-04-01T20:22:55;10.20;72.40
27004;DHT22;14546;47.590;19.022;2023-04-01T20:25:24;10.20;72.80
27004;DHT22;14546;47.590;19.022;2023-04-01T20:47:40;10.00;73.40
27004;DHT22;14546;47.590;19.022;2023-04-01T20:50:39;10.00;73.60
27004;DHT22;14546;47.590;19.022;2023-04-01T20:53:15;10.00;73.70
27004;DHT22;14546;47.590;19.022;2023-04-01T20:58:50;9.90;73.90
27004;DHT22;14546;47.590;19.022;2023-04-01T21:01:41;9.90;73.80
27004;DHT22;14546;47.590;19.022;2023-04-01T21:13:21;9.80;74.60
27004;DHT22;14546;47.590;19.022;2023-04-01T21:16:03;9.80;74.80
27004;DHT22;14546;47.590;19.022;2023-04-01T21:27:33;9.80;75.30
27004;DHT22;14546;47.590;19.022;2023-04-01T21:49:19;10.30;76.40
27004;DHT22;14546;47.590;19.022;2023-04-01T22:03:37;10.50;74.50
27004;DHT22;14546;47.590;19.022;2023-04-01T22:17:35;10.40;74.10
27004;DHT22;14546;47.590;19.022;2023-04-01T22:20:42;10.40;74.20
27004;DHT22;14546;47.590;19.022;2023-04-01T22:24:03;10.30;74.30
27004;DHT22;14546;47.590;19.022;2023-04-01T22:31:46;10.20;74.60
27004;DHT22;14546;47.590;19.022;2023-04-01T22:34:54;10.20;74.60
27004;DHT22;14546;47.590;19.022;2023-04-01T22:37:40;10.20;74.80
27004;DHT22;14546;47.590;19.022;2023-04-01T22:43:31;10.00;74.70
27004;DHT22;14546;47.590;19.022;2023-04-01T22:48:48;10.00;75.00
27004;DHT22;14546;47.590;19.022;2023-04-01T22:57:12;9.90;75.30
27004;DHT22;14546;47.590;19.022;2023-04-01T23:02:37;9.90;75.50
27004;DHT22;14546;47.590;19.022;2023-04-01T23:05:06;9.80;75.50
27004;DHT22;14546;47.590;19.022;2023-04-01T23:13:02;9.70;75.80
27004;DHT22;14546;47.590;19.022;2023-04-01T23:15:28;9.70;75.80
27004;DHT22;14546;47.590;19.022;2023-04-01T23:18:22;9.70;76.00
27004;DHT22;14546;47.590;19.022;2023-04-01T23:26:18;9.60;76.70
27004;DHT22;14546;47.590;19.022;2023-04-01T23:28:53;9.60;76.70
27004;DHT22;14546;47.590;19.022;2023-04-01T23:33:59;9.60;77.00
27004;DHT22;14546;47.590;19.022;2023-04-01T23:36:27;9.60;77.30
27004;DHT22;14546;47.590;19.022;2023-04-01T23:38:53;9.60;77.30
27004;DHT22;14546;47.590;19.022;2023-04-01T23:41:30;9.60;77.40
27004;DHT22;14546;47.590;19.022;2023-04-01T23:44:09;9.60;77.40
27004;DHT22;14546;47.590;19.022;2023-04-01T23:46:37;9.60;77.50
27004;DHT22;14546;47.590;19.022;2023-04-01T23:49:19;9.60;77.50
27004;DHT22;14546;47.590;19.022;2023-04-01T23:52:14;9.60;77.50
27004;DHT22;14546;47.590;19.022;2023-04-01T23:54:48;9.50;77.50
27004;DHT22;14546;47.590;19.022;2023-04-01T23:57:22;9.50;77.80
